sensor_id;sensor_type;location;lat;lon;timestamp;pressure;altitude;pressure_sealevel;temperature;humidity
37170;BME280;23062;13.952;100.608;2023-04-26T00:03:59;1009.28;;;30.57;65.06
37170;BME280;23062;13.952;100.608;2023-04-26T00:08:25;1009.24;;;30.60;64.49
37170;BME280;23062;13.952;100.608;2023-04-26T00:12:54;1009.33;;;30.62;64.76
37170;BME280;23062;13.952;100.608;2023-04-26T00:17:22;1009.39;;;30.64;65.20
37170;BME280;23062;13.952;100.608;2023-04-26T00:21:48;1009.46;;;30.65;64.88
37170;BME280;23062;13.952;100.608;2023-04-26T00:26:14;1009.59;;;30.65;64.96
37170;BME280;23062;13.952;100.608;2023-04-26T00:30:40;1009.67;;;30.64;64.61
37170;BME280;23062;13.952;100.608;2023-04-26T00:35:08;1009.87;;;30.63;64.94
37170;BME280;23062;13.952;100.608;2023-04-26T00:39:37;1009.87;;;30.72;65.04
37170;BME280;23062;13.952;100.608;2023-04-26T00:44:03;1009.84;;;30.75;65.87
37170;BME280;23062;13.952;100.608;2023-04-26T00:48:30;1009.94;;;30.82;65.92
37170;BME280;23062;13.952;100.608;2023-04-26T00:52:57;1009.96;;;30.84;66.23
37170;BME280;23062;13.952;100.608;2023-04-26T00:57:25;1010.03;;;30.83;66.23
37170;BME280;23062;13.952;100.608;2023-04-26T01:01:51;1009.96;;;30.84;66.71
37170;BME280;23062;13.952;100.608;2023-04-26T01:06:20;1009.95;;;30.90;65.81
37170;BME280;23062;13.952;100.608;2023-04-26T01:10:48;1009.98;;;30.90;65.59
37170;BME280;23062;13.952;100.608;2023-04-26T01:15:21;1010.04;;;30.93;65.56
37170;BME280;23062;13.952;100.608;2023-04-26T01:19:49;1010.18;;;31.02;65.43
37170;BME280;23062;13.952;100.608;2023-04-26T01:24:14;1010.38;;;31.00;64.96
37170;BME280;23062;13.952;100.608;2023-04-26T01:28:40;1010.71;;;31.05;64.28
37170;BME280;23062;13.952;100.608;2023-04-26T01:33:05;1010.92;;;31.08;64.01
37170;BME280;23062;13.952;100.608;2023-04-26T01:37:33;1010.99;;;31.16;63.88
37170;BME280;23062;13.952;100.608;2023-04-26T01:42:02;1011.05;;;31.16;63.84
37170;BME280;23062;13.952;100.608;2023-04-26T01:46:30;1011.09;;;31.14;63.46
37170;BME280;23062;13.952;100.608;2023-04-26T01:50:56;1011.12;;;31.18;63.42
37170;BME280;23062;13.952;100.608;2023-04-26T01:55:22;1011.27;;;31.14;63.44
37170;BME280;23062;13.952;100.608;2023-04-26T01:59:48;1011.27;;;31.18;63.18
37170;BME280;23062;13.952;100.608;2023-04-26T02:04:14;1011.27;;;31.15;63.60
37170;BME280;23062;13.952;100.608;2023-04-26T02:08:40;1011.30;;;31.20;63.54
37170;BME280;23062;13.952;100.608;2023-04-26T02:13:09;1011.33;;;31.24;63.46
37170;BME280;23062;13.952;100.608;2023-04-26T02:17:45;1011.30;;;31.27;63.07
37170;BME280;23062;13.952;100.608;2023-04-26T02:22:11;1011.37;;;31.28;62.65
37170;BME280;23062;13.952;100.608;2023-04-26T02:26:37;1011.43;;;31.26;62.01
37170;BME280;23062;13.952;100.608;2023-04-26T02:31:02;1011.48;;;31.26;61.89
37170;BME280;23062;13.952;100.608;2023-04-26T02:35:28;1011.46;;;31.23;62.03
37170;BME280;23062;13.952;100.608;2023-04-26T02:39:54;1011.38;;;31.25;62.28
37170;BME280;23062;13.952;100.608;2023-04-26T02:44:23;1011.32;;;31.28;62.71
37170;BME280;23062;13.952;100.608;2023-04-26T02:48:49;1011.37;;;31.31;62.49
37170;BME280;23062;13.952;100.608;2023-04-26T02:53:14;1011.38;;;31.35;62.46
37170;BME280;23062;13.952;100.608;2023-04-26T02:57:41;1011.50;;;31.34;62.76
37170;BME280;23062;13.952;100.608;2023-04-26T03:02:07;1011.64;;;31.39;62.37
37170;BME280;23062;13.952;100.608;2023-04-26T03:06:34;1011.57;;;31.41;62.12
37170;BME280;23062;13.952;100.608;2023-04-26T03:11:00;1011.38;;;31.41;61.88
37170;BME280;23062;13.952;100.608;2023-04-26T03:15:29;1011.33;;;31.41;61.96
37170;BME280;23062;13.952;100.608;2023-04-26T03:19:54;1011.38;;;31.34;62.22
37170;BME280;23062;13.952;100.608;2023-04-26T03:24:21;1011.46;;;31.33;62.39
37170;BME280;23062;13.952;100.608;2023-04-26T03:28:47;1011.51;;;31.33;62.35
37170;BME280;23062;13.952;100.608;2023-04-26T03:33:15;1011.76;;;31.28;63.10
37170;BME280;23062;13.952;100.608;2023-04-26T03:37:45;1011.57;;;30.94;63.97
37170;BME280;23062;13.952;100.608;2023-04-26T03:42:08;1011.64;;;30.94;62.87
37170;BME280;23062;13.952;100.608;2023-04-26T03:46:33;1011.77;;;30.79;63.08
37170;BME280;23062;13.952;100.608;2023-04-26T03:51:03;1011.89;;;30.77;63.09
37170;BME280;23062;13.952;100.608;2023-04-26T03:55:29;1011.84;;;30.79;63.40
37170;BME280;23062;13.952;100.608;2023-04-26T03:59:55;1011.74;;;30.84;63.52
37170;BME280;23062;13.952;100.608;2023-04-26T04:04:28;1011.63;;;30.95;63.62
37170;BME280;23062;13.952;100.608;2023-04-26T04:08:54;1011.55;;;30.88;64.02
37170;BME280;23062;13.952;100.608;2023-04-26T04:13:20;1011.53;;;30.81;64.12
37170;BME280;23062;13.952;100.608;2023-04-26T04:17:46;1011.61;;;30.78;64.12
37170;BME280;23062;13.952;100.608;2023-04-26T04:22:13;1011.66;;;30.79;64.12
37170;BME280;23062;13.952;100.608;2023-04-26T04:26:43;1011.54;;;30.83;64.11
37170;BME280;23062;13.952;100.608;2023-04-26T04:31:09;1011.49;;;30.87;64.31
37170;BME280;23062;13.952;100.608;2023-04-26T04:35:42;1011.67;;;30.94;64.22
37170;BME280;23062;13.952;100.608;2023-04-26T04:40:12;1011.82;;;31.00;63.81
37170;BME280;23062;13.952;100.608;2023-04-26T04:44:37;1011.87;;;31.02;63.41
37170;BME280;23062;13.952;100.608;2023-04-26T04:53:34;1011.66;;;31.01;63.27
37170;BME280;23062;13.952;100.608;2023-04-26T04:58:02;1011.55;;;31.00;62.96
37170;BME280;23062;13.952;100.608;2023-04-26T05:02:30;1011.53;;;30.96;62.79
37170;BME280;23062;13.952;100.608;2023-04-26T05:06:56;1011.44;;;30.89;62.64
37170;BME280;23062;13.952;100.608;2023-04-26T05:11:29;1011.25;;;30.86;63.01
37170;BME280;23062;13.952;100.608;2023-04-26T05:15:56;1011.09;;;30.89;62.74
37170;BME280;23062;13.952;100.608;2023-04-26T05:20:23;1011.05;;;30.82;61.99
37170;BME280;23062;13.952;100.608;2023-04-26T05:24:50;1010.82;;;30.88;61.76
37170;BME280;23062;13.952;100.608;2023-04-26T05:29:17;1010.62;;;30.87;61.41
37170;BME280;23062;13.952;100.608;2023-04-26T05:33:47;1010.46;;;30.89;60.94
37170;BME280;23062;13.952;100.608;2023-04-26T05:38:13;1010.08;;;30.92;60.64
37170;BME280;23062;13.952;100.608;2023-04-26T05:42:40;1009.86;;;30.97;60.71
37170;BME280;23062;13.952;100.608;2023-04-26T05:47:07;1009.89;;;30.97;60.55
37170;BME280;23062;13.952;100.608;2023-04-26T05:51:36;1009.88;;;31.00;60.34
37170;BME280;23062;13.952;100.608;2023-04-26T05:56:00;1009.81;;;31.05;60.44
37170;BME280;23062;13.952;100.608;2023-04-26T06:00:32;1009.60;;;31.12;60.21
37170;BME280;23062;13.952;100.608;2023-04-26T06:04:53;1009.43;;;31.15;60.09
37170;BME280;23062;13.952;100.608;2023-04-26T06:09:20;1009.26;;;31.08;59.31
37170;BME280;23062;13.952;100.608;2023-04-26T06:13:46;1009.10;;;31.12;58.28
37170;BME280;23062;13.952;100.608;2023-04-26T06:18:13;1008.93;;;31.13;57.87
37170;BME280;23062;13.952;100.608;2023-04-26T06:22:40;1008.77;;;31.09;57.87
37170;BME280;23062;13.952;100.608;2023-04-26T06:27:06;1008.83;;;31.12;58.02
37170;BME280;23062;13.952;100.608;2023-04-26T06:31:35;1008.86;;;31.17;57.90
37170;BME280;23062;13.952;100.608;2023-04-26T06:36:01;1008.77;;;31.12;57.49
37170;BME280;23062;13.952;100.608;2023-04-26T06:40:27;1008.65;;;31.10;57.23
37170;BME280;23062;13.952;100.608;2023-04-26T06:44:54;1008.66;;;31.07;56.57
37170;BME280;23062;13.952;100.608;2023-04-26T06:49:28;1008.66;;;31.10;56.21
37170;BME280;23062;13.952;100.608;2023-04-26T06:53:56;1008.57;;;31.14;55.99
37170;BME280;23062;13.952;100.608;2023-04-26T06:58:32;1008.54;;;31.15;55.61
37170;BME280;23062;13.952;100.608;2023-04-26T07:03:03;1008.43;;;31.13;55.33
37170;BME280;23062;13.952;100.608;2023-04-26T07:07:30;1008.34;;;31.16;54.95
37170;BME280;23062;13.952;100.608;2023-04-26T07:11:57;1008.27;;;31.11;54.66
37170;BME280;23062;13.952;100.608;2023-04-26T07:16:31;1008.21;;;31.11;54.60
37170;BME280;23062;13.952;100.608;2023-04-26T07:20:56;1008.17;;;31.02;54.33
37170;BME280;23062;13.952;100.608;2023-04-26T07:25:23;1008.00;;;31.08;54.62
37170;BME280;23062;13.952;100.608;2023-04-26T07:29:52;1007.82;;;31.13;54.42
37170;BME280;23062;13.952;100.608;2023-04-26T07:34:17;1007.78;;;31.17;54.29
37170;BME280;23062;13.952;100.608;2023-04-26T07:38:44;1007.69;;;31.16;54.47
37170;BME280;23062;13.952;100.608;2023-04-26T07:43:11;1007.57;;;31.20;54.64
37170;BME280;23062;13.952;100.608;2023-04-26T07:47:39;1007.55;;;31.23;55.00
37170;BME280;23062;13.952;100.608;2023-04-26T07:52:08;1007.63;;;31.27;55.39
37170;BME280;23062;13.952;100.608;2023-04-26T07:56:34;1007.57;;;31.28;55.29
37170;BME280;23062;13.952;100.608;2023-04-26T08:01:03;1007.40;;;31.26;55.00
37170;BME280;23062;13.952;100.608;2023-04-26T08:05:29;1007.22;;;31.26;55.34
37170;BME280;23062;13.952;100.608;2023-04-26T08:09:56;1007.10;;;31.27;55.52
37170;BME280;23062;13.952;100.608;2023-04-26T08:14:23;1006.98;;;31.28;55.76
37170;BME280;23062;13.952;100.608;2023-04-26T08:18:49;1006.90;;;31.32;55.61
37170;BME280;23062;13.952;100.608;2023-04-26T08:23:15;1006.87;;;31.36;55.25
37170;BME280;23062;13.952;100.608;2023-04-26T08:27:45;1006.73;;;31.35;55.35
37170;BME280;23062;13.952;100.608;2023-04-26T08:32:10;1006.76;;;31.39;55.35
37170;BME280;23062;13.952;100.608;2023-04-26T08:36:39;1006.81;;;31.39;55.19
37170;BME280;23062;13.952;100.608;2023-04-26T08:41:14;1006.92;;;31.39;54.78
37170;BME280;23062;13.952;100.608;2023-04-26T08:45:41;1006.98;;;31.44;54.55
37170;BME280;23062;13.952;100.608;2023-04-26T08:50:13;1006.77;;;31.37;54.42
37170;BME280;23062;13.952;100.608;2023-04-26T08:54:41;1006.82;;;31.43;54.75
37170;BME280;23062;13.952;100.608;2023-04-26T08:59:10;1006.75;;;31.42;54.65
37170;BME280;23062;13.952;100.608;2023-04-26T09:03:37;1006.63;;;31.46;54.65
37170;BME280;23062;13.952;100.608;2023-04-26T09:08:03;1006.56;;;31.47;54.31
37170;BME280;23062;13.952;100.608;2023-04-26T09:12:30;1006.55;;;31.45;54.40
37170;BME280;23062;13.952;100.608;2023-04-26T09:16:56;1006.53;;;31.46;54.49
37170;BME280;23062;13.952;100.608;2023-04-26T09:21:23;1006.58;;;31.42;54.26
37170;BME280;23062;13.952;100.608;2023-04-26T09:25:53;1006.46;;;31.44;54.36
37170;BME280;23062;13.952;100.608;2023-04-26T09:30:19;1006.44;;;31.47;54.22
37170;BME280;23062;13.952;100.608;2023-04-26T09:34:45;1006.45;;;31.47;54.23
37170;BME280;23062;13.952;100.608;2023-04-26T09:39:11;1006.43;;;31.48;54.29
37170;BME280;23062;13.952;100.608;2023-04-26T09:43:38;1006.50;;;31.47;54.52
37170;BME280;23062;13.952;100.608;2023-04-26T09:48:24;1006.61;;;31.50;54.35
37170;BME280;23062;13.952;100.608;2023-04-26T09:52:56;1006.72;;;31.49;54.27
37170;BME280;23062;13.952;100.608;2023-04-26T09:57:26;1006.74;;;31.50;54.38
37170;BME280;23062;13.952;100.608;2023-04-26T10:01:53;1006.71;;;31.48;54.23
37170;BME280;23062;13.952;100.608;2023-04-26T10:06:19;1006.79;;;31.50;54.14
37170;BME280;23062;13.952;100.608;2023-04-26T10:10:46;1006.80;;;31.52;54.31
37170;BME280;23062;13.952;100.608;2023-04-26T10:15:12;1006.85;;;31.53;54.47
37170;BME280;23062;13.952;100.608;2023-04-26T10:19:40;1006.96;;;31.50;54.58
37170;BME280;23062;13.952;100.608;2023-04-26T10:24:08;1006.97;;;31.51;54.65
37170;BME280;23062;13.952;100.608;2023-04-26T10:28:52;1007.14;;;31.51;54.63
37170;BME280;23062;13.952;100.608;2023-04-26T10:33:16;1007.28;;;31.50;54.50
37170;BME280;23062;13.952;100.608;2023-04-26T10:42:34;1007.40;;;31.54;54.85
37170;BME280;23062;13.952;100.608;2023-04-26T10:47:02;1007.44;;;31.53;55.10
37170;BME280;23062;13.952;100.608;2023-04-26T10:51:28;1007.63;;;31.54;55.51
37170;BME280;23062;13.952;100.608;2023-04-26T10:55:56;1007.77;;;31.54;56.00
37170;BME280;23062;13.952;100.608;2023-04-26T11:00:27;1007.85;;;31.48;56.64
37170;BME280;23062;13.952;100.608;2023-04-26T11:04:58;1008.01;;;31.52;56.92
37170;BME280;23062;13.952;100.608;2023-04-26T11:09:47;1008.20;;;31.52;57.20
37170;BME280;23062;13.952;100.608;2023-04-26T11:14:10;1008.34;;;31.49;57.60
37170;BME280;23062;13.952;100.608;2023-04-26T11:18:45;1008.44;;;31.50;57.73
37170;BME280;23062;13.952;100.608;2023-04-26T11:23:11;1008.53;;;31.49;58.04
37170;BME280;23062;13.952;100.608;2023-04-26T11:27:44;1008.59;;;31.47;58.29
37170;BME280;23062;13.952;100.608;2023-04-26T11:32:08;1008.65;;;31.49;58.33
37170;BME280;23062;13.952;100.608;2023-04-26T11:36:38;1008.83;;;31.50;58.43
37170;BME280;23062;13.952;100.608;2023-04-26T11:41:07;1008.89;;;31.50;58.57
37170;BME280;23062;13.952;100.608;2023-04-26T11:45:35;1008.93;;;31.48;58.87
37170;BME280;23062;13.952;100.608;2023-04-26T11:50:02;1008.97;;;31.46;59.09
37170;BME280;23062;13.952;100.608;2023-04-26T11:54:32;1009.07;;;31.47;59.16
37170;BME280;23062;13.952;100.608;2023-04-26T11:58:58;1009.24;;;31.49;59.12
37170;BME280;23062;13.952;100.608;2023-04-26T12:03:32;1009.31;;;31.48;59.34
37170;BME280;23062;13.952;100.608;2023-04-26T12:08:04;1009.28;;;31.42;59.63
37170;BME280;23062;13.952;100.608;2023-04-26T12:12:32;1009.36;;;31.45;59.66
37170;BME280;23062;13.952;100.608;2023-04-26T12:17:00;1009.51;;;31.49;59.64
37170;BME280;23062;13.952;100.608;2023-04-26T12:21:28;1009.55;;;31.48;59.94
37170;BME280;23062;13.952;100.608;2023-04-26T12:25:56;1009.61;;;31.46;60.24
37170;BME280;23062;13.952;100.608;2023-04-26T12:30:24;1009.71;;;31.47;59.93
37170;BME280;23062;13.952;100.608;2023-04-26T12:34:53;1009.88;;;31.48;60.41
37170;BME280;23062;13.952;100.608;2023-04-26T12:39:25;1009.88;;;31.47;60.71
37170;BME280;23062;13.952;100.608;2023-04-26T12:43:53;1009.75;;;31.46;60.81
37170;BME280;23062;13.952;100.608;2023-04-26T12:48:20;1009.82;;;31.48;60.79
37170;BME280;23062;13.952;100.608;2023-04-26T12:52:52;1010.00;;;31.47;61.04
37170;BME280;23062;13.952;100.608;2023-04-26T12:57:16;1010.09;;;31.47;61.34
37170;BME280;23062;13.952;100.608;2023-04-26T13:01:51;1010.10;;;31.46;61.50
37170;BME280;23062;13.952;100.608;2023-04-26T13:06:16;1010.20;;;31.46;61.36
37170;BME280;23062;13.952;100.608;2023-04-26T13:10:45;1010.26;;;31.46;61.35
37170;BME280;23062;13.952;100.608;2023-04-26T13:15:12;1010.27;;;31.44;61.04
37170;BME280;23062;13.952;100.608;2023-04-26T13:19:43;1010.14;;;31.38;61.04
37170;BME280;23062;13.952;100.608;2023-04-26T13:24:19;1010.08;;;31.40;61.24
37170;BME280;23062;13.952;100.608;2023-04-26T13:33:21;1009.95;;;31.39;61.58
37170;BME280;23062;13.952;100.608;2023-04-26T13:37:51;1009.83;;;31.39;61.80
37170;BME280;23062;13.952;100.608;2023-04-26T13:42:21;1010.02;;;31.42;61.91
37170;BME280;23062;13.952;100.608;2023-04-26T13:46:48;1010.03;;;31.44;62.00
37170;BME280;23062;13.952;100.608;2023-04-26T13:51:18;1009.95;;;31.42;62.12
37170;BME280;23062;13.952;100.608;2023-04-26T13:55:45;1010.04;;;31.44;62.04
37170;BME280;23062;13.952;100.608;2023-04-26T14:00:19;1010.14;;;31.46;62.26
37170;BME280;23062;13.952;100.608;2023-04-26T14:04:45;1010.08;;;31.42;62.60
37170;BME280;23062;13.952;100.608;2023-04-26T14:09:12;1010.01;;;31.43;62.76
37170;BME280;23062;13.952;100.608;2023-04-26T14:13:46;1009.92;;;31.39;62.89
37170;BME280;23062;13.952;100.608;2023-04-26T14:18:14;1009.76;;;31.41;62.88
37170;BME280;23062;13.952;100.608;2023-04-26T14:22:40;1009.64;;;31.39;62.83
37170;BME280;23062;13.952;100.608;2023-04-26T14:27:08;1009.67;;;31.43;62.59
37170;BME280;23062;13.952;100.608;2023-04-26T14:31:35;1009.71;;;31.64;61.52
37170;BME280;23062;13.952;100.608;2023-04-26T14:36:01;1009.85;;;31.76;60.60
37170;BME280;23062;13.952;100.608;2023-04-26T14:40:26;1009.81;;;31.76;60.99
37170;BME280;23062;13.952;100.608;2023-04-26T14:44:53;1009.83;;;31.84;60.93
37170;BME280;23062;13.952;100.608;2023-04-26T14:49:19;1009.83;;;31.87;60.80
37170;BME280;23062;13.952;100.608;2023-04-26T14:53:47;1009.85;;;31.89;60.73
37170;BME280;23062;13.952;100.608;2023-04-26T14:58:12;1009.98;;;31.91;60.95
37170;BME280;23062;13.952;100.608;2023-04-26T15:02:46;1009.90;;;31.92;60.87
37170;BME280;23062;13.952;100.608;2023-04-26T15:07:12;1009.84;;;31.93;60.97
37170;BME280;23062;13.952;100.608;2023-04-26T15:11:38;1009.80;;;31.94;60.89
37170;BME280;23062;13.952;100.608;2023-04-26T15:16:04;1009.86;;;31.95;60.98
37170;BME280;23062;13.952;100.608;2023-04-26T15:20:29;1009.81;;;31.94;60.90
37170;BME280;23062;13.952;100.608;2023-04-26T15:24:57;1009.83;;;31.94;61.07
37170;BME280;23062;13.952;100.608;2023-04-26T15:29:23;1009.82;;;31.93;61.02
37170;BME280;23062;13.952;100.608;2023-04-26T15:33:50;1009.82;;;31.93;60.92
37170;BME280;23062;13.952;100.608;2023-04-26T15:38:17;1009.86;;;31.92;61.02
37170;BME280;23062;13.952;100.608;2023-04-26T15:42:42;1009.80;;;31.92;60.91
37170;BME280;23062;13.952;100.608;2023-04-26T15:47:08;1009.77;;;31.91;60.93
37170;BME280;23062;13.952;100.608;2023-04-26T15:51:34;1009.78;;;31.91;60.95
37170;BME280;23062;13.952;100.608;2023-04-26T15:56:01;1009.80;;;31.91;61.04
37170;BME280;23062;13.952;100.608;2023-04-26T16:00:27;1009.72;;;31.91;61.14
37170;BME280;23062;13.952;100.608;2023-04-26T16:04:56;1009.72;;;31.91;61.09
37170;BME280;23062;13.952;100.608;2023-04-26T16:09:22;1009.72;;;31.91;61.01
37170;BME280;23062;13.952;100.608;2023-04-26T16:13:48;1009.78;;;31.90;61.05
37170;BME280;23062;13.952;100.608;2023-04-26T16:18:18;1009.68;;;31.89;61.06
37170;BME280;23062;13.952;100.608;2023-04-26T16:22:53;1009.67;;;31.89;61.04
37170;BME280;23062;13.952;100.608;2023-04-26T16:27:19;1009.65;;;31.89;61.06
37170;BME280;23062;13.952;100.608;2023-04-26T16:31:45;1009.67;;;31.89;61.11
37170;BME280;23062;13.952;100.608;2023-04-26T16:36:10;1009.69;;;31.88;61.13
37170;BME280;23062;13.952;100.608;2023-04-26T16:40:37;1009.76;;;31.88;61.06
37170;BME280;23062;13.952;100.608;2023-04-26T16:45:02;1009.81;;;31.88;61.15
37170;BME280;23062;13.952;100.608;2023-04-26T16:49:28;1009.74;;;31.88;61.12
37170;BME280;23062;13.952;100.608;2023-04-26T16:53:56;1009.67;;;31.86;61.14
37170;BME280;23062;13.952;100.608;2023-04-26T16:58:25;1009.68;;;31.87;61.19
37170;BME280;23062;13.952;100.608;2023-04-26T17:02:52;1009.63;;;31.85;61.14
37170;BME280;23062;13.952;100.608;2023-04-26T17:07:18;1009.60;;;31.85;61.21
37170;BME280;23062;13.952;100.608;2023-04-26T17:11:47;1009.65;;;31.85;61.30
37170;BME280;23062;13.952;100.608;2023-04-26T17:16:13;1009.74;;;31.85;61.46
37170;BME280;23062;13.952;100.608;2023-04-26T17:20:41;1009.58;;;31.85;61.45
37170;BME280;23062;13.952;100.608;2023-04-26T17:25:08;1009.55;;;31.85;61.54
37170;BME280;23062;13.952;100.608;2023-04-26T17:29:33;1009.47;;;31.85;61.61
37170;BME280;23062;13.952;100.608;2023-04-26T17:33:59;1009.32;;;31.85;61.64
37170;BME280;23062;13.952;100.608;2023-04-26T17:38:25;1009.33;;;31.85;61.54
37170;BME280;23062;13.952;100.608;2023-04-26T17:42:50;1009.27;;;31.84;61.52
37170;BME280;23062;13.952;100.608;2023-04-26T17:47:19;1009.18;;;31.84;61.55
37170;BME280;23062;13.952;100.608;2023-04-26T17:51:45;1009.08;;;31.83;61.23
37170;BME280;23062;13.952;100.608;2023-04-26T17:56:11;1009.02;;;31.83;61.32
37170;BME280;23062;13.952;100.608;2023-04-26T18:00:36;1008.96;;;31.85;61.25
37170;BME280;23062;13.952;100.608;2023-04-26T18:05:02;1008.84;;;31.83;61.63
37170;BME280;23062;13.952;100.608;2023-04-26T18:09:29;1008.78;;;31.83;61.45
37170;BME280;23062;13.952;100.608;2023-04-26T18:13:55;1008.72;;;31.83;61.24
37170;BME280;23062;13.952;100.608;2023-04-26T18:18:21;1008.67;;;31.82;61.53
37170;BME280;23062;13.952;100.608;2023-04-26T18:22:46;1008.63;;;31.82;61.51
37170;BME280;23062;13.952;100.608;2023-04-26T18:27:12;1008.62;;;31.81;61.63
37170;BME280;23062;13.952;100.608;2023-04-26T18:31:38;1008.63;;;31.81;61.76
37170;BME280;23062;13.952;100.608;2023-04-26T18:36:11;1008.66;;;31.78;61.78
37170;BME280;23062;13.952;100.608;2023-04-26T18:40:41;1008.73;;;31.79;61.83
37170;BME280;23062;13.952;100.608;2023-04-26T18:45:04;1008.83;;;31.80;61.88
37170;BME280;23062;13.952;100.608;2023-04-26T18:49:30;1008.81;;;31.78;62.04
37170;BME280;23062;13.952;100.608;2023-04-26T18:53:57;1008.75;;;31.77;62.10
37170;BME280;23062;13.952;100.608;2023-04-26T18:58:23;1008.74;;;31.75;62.12
37170;BME280;23062;13.952;100.608;2023-04-26T19:02:49;1008.82;;;31.74;62.22
37170;BME280;23062;13.952;100.608;2023-04-26T19:07:14;1008.81;;;31.73;62.28
37170;BME280;23062;13.952;100.608;2023-04-26T19:11:43;1008.75;;;31.72;62.21
37170;BME280;23062;13.952;100.608;2023-04-26T19:16:09;1008.68;;;31.71;62.25
37170;BME280;23062;13.952;100.608;2023-04-26T19:20:35;1008.59;;;31.70;62.31
37170;BME280;23062;13.952;100.608;2023-04-26T19:25:01;1008.56;;;31.70;62.11
37170;BME280;23062;13.952;100.608;2023-04-26T19:29:28;1008.67;;;31.70;62.25
37170;BME280;23062;13.952;100.608;2023-04-26T19:33:54;1008.72;;;31.70;62.18
37170;BME280;23062;13.952;100.608;2023-04-26T19:38:20;1008.68;;;31.70;62.25
37170;BME280;23062;13.952;100.608;2023-04-26T19:42:49;1008.58;;;31.67;62.39
37170;BME280;23062;13.952;100.608;2023-04-26T19:47:15;1008.56;;;31.67;62.41
37170;BME280;23062;13.952;100.608;2023-04-26T19:51:41;1008.56;;;31.66;62.47
37170;BME280;23062;13.952;100.608;2023-04-26T19:56:07;1008.53;;;31.61;62.24
37170;BME280;23062;13.952;100.608;2023-04-26T20:00:36;1008.45;;;31.51;63.75
37170;BME280;23062;13.952;100.608;2023-04-26T20:05:03;1008.41;;;31.39;64.29
37170;BME280;23062;13.952;100.608;2023-04-26T20:09:31;1008.37;;;31.32;64.63
37170;BME280;23062;13.952;100.608;2023-04-26T20:14:00;1008.30;;;31.29;64.96
37170;BME280;23062;13.952;100.608;2023-04-26T20:18:27;1008.24;;;31.09;65.88
37170;BME280;23062;13.952;100.608;2023-04-26T20:22:55;1008.21;;;31.00;66.50
37170;BME280;23062;13.952;100.608;2023-04-26T20:27:28;1008.21;;;30.90;67.00
37170;BME280;23062;13.952;100.608;2023-04-26T21:34:33;1008.53;;;30.47;68.10
37170;BME280;23062;13.952;100.608;2023-04-26T21:39:07;1008.54;;;30.44;68.18
37170;BME280;23062;13.952;100.608;2023-04-26T21:43:40;1008.47;;;30.42;68.22
37170;BME280;23062;13.952;100.608;2023-04-26T21:48:03;1008.54;;;30.46;68.12
37170;BME280;23062;13.952;100.608;2023-04-26T21:52:29;1008.62;;;30.44;68.45
37170;BME280;23062;13.952;100.608;2023-04-26T21:56:56;1008.57;;;30.43;68.83
37170;BME280;23062;13.952;100.608;2023-04-26T22:01:24;1008.59;;;30.45;68.66
37170;BME280;23062;13.952;100.608;2023-04-26T22:05:54;1008.69;;;30.43;68.85
37170;BME280;23062;13.952;100.608;2023-04-26T22:10:19;1008.81;;;30.47;68.90
37170;BME280;23062;13.952;100.608;2023-04-26T22:14:45;1008.91;;;30.44;68.97
37170;BME280;23062;13.952;100.608;2023-04-26T22:19:11;1009.03;;;30.46;68.91
37170;BME280;23062;13.952;100.608;2023-04-26T22:23:38;1009.11;;;30.50;68.92
37170;BME280;23062;13.952;100.608;2023-04-26T22:28:05;1009.22;;;30.55;68.65
37170;BME280;23062;13.952;100.608;2023-04-26T22:32:32;1009.29;;;30.56;68.58
37170;BME280;23062;13.952;100.608;2023-04-26T22:36:58;1009.35;;;30.58;68.53
37170;BME280;23062;13.952;100.608;2023-04-26T22:41:27;1009.41;;;30.68;68.50
37170;BME280;23062;13.952;100.608;2023-04-26T22:45:54;1009.47;;;30.78;68.11
37170;BME280;23062;13.952;100.608;2023-04-26T22:50:20;1009.60;;;30.81;67.96
37170;BME280;23062;13.952;100.608;2023-04-26T22:54:46;1009.66;;;30.79;67.94
37170;BME280;23062;13.952;100.608;2023-04-26T22:59:13;1009.68;;;30.74;67.98
37170;BME280;23062;13.952;100.608;2023-04-26T23:03:42;1009.73;;;30.74;67.96
37170;BME280;23062;13.952;100.608;2023-04-26T23:08:08;1009.78;;;30.73;67.96
37170;BME280;23062;13.952;100.608;2023-04-26T23:12:34;1009.78;;;30.73;68.03
37170;BME280;23062;13.952;100.608;2023-04-26T23:17:00;1009.76;;;30.73;68.09
37170;BME280;23062;13.952;100.608;2023-04-26T23:21:25;1009.78;;;30.76;68.05
37170;BME280;23062;13.952;100.608;2023-04-26T23:25:54;1009.78;;;30.76;68.13
37170;BME280;23062;13.952;100.608;2023-04-26T23:30:20;1009.78;;;30.76;68.08
37170;BME280;23062;13.952;100.608;2023-04-26T23:34:46;1009.81;;;30.77;68.12
37170;BME280;23062;13.952;100.608;2023-04-26T23:39:11;1009.80;;;30.77;67.92
37170;BME280;23062;13.952;100.608;2023-04-26T23:43:38;1009.89;;;30.79;67.86
37170;BME280;23062;13.952;100.608;2023-04-26T23:48:07;1010.01;;;30.80;67.90
37170;BME280;23062;13.952;100.608;2023-04-26T23:52:39;1010.19;;;30.83;67.72
37170;BME280;23062;13.952;100.608;2023-04-26T23:57:05;1010.25;;;30.88;67.57
